Time;durP1;ratioP1;P1;durP2;ratioP2;P2;SDS_P1;SDS_P2;PMS_P1;PMS_P2;Temp;Humidity;BMP_temperature;BMP_pressure;BME280_temperature;BME280_humidity;BME280_pressure;Samples;Min_cycle;Max_cycle;Signal;HPM_P1;HPM_P2
2021/11/09 00:00:43;;;;;;;9.32;8.00;;;;;;;31.85;19.15;94720.09;5094701;28;20036;-49
2021/11/09 00:03:10;;;;;;;14.55;7.72;;;;;;;31.87;19.05;94720.44;5095396;28;20048;-49
2021/11/09 00:08:42;;;;;;;9.40;7.78;;;;;;;31.71;19.09;94718.41;5095247;28;20438;-54
2021/11/09 00:11:08;;;;;;;9.27;8.05;;;;;;;31.87;19.18;94726.63;5094459;28;20055;-48
2021/11/09 00:13:35;;;;;;;9.15;7.80;;;;;;;31.84;18.90;94729.38;5094430;28;20044;-50
2021/11/09 00:16:02;;;;;;;8.65;7.55;;;;;;;31.68;19.08;94732.72;5094983;28;20040;-49
2021/11/09 00:18:29;;;;;;;8.90;7.68;;;;;;;32.01;19.04;94719.41;5095207;28;20047;-49
2021/11/09 00:20:57;;;;;;;9.02;8.23;;;;;;;31.63;19.49;94717.00;5094293;28;20052;-49
2021/11/09 00:23:24;;;;;;;9.55;8.60;;;;;;;31.95;19.15;94723.78;5094032;28;20044;-50
2021/11/09 00:25:51;;;;;;;9.98;7.30;;;;;;;31.69;19.27;94707.22;5094957;28;20040;-51
2021/11/09 00:28:18;;;;;;;7.75;7.00;;;;;;;31.87;18.95;94707.69;5094073;28;20331;-49
2021/11/09 00:30:46;;;;;;;7.85;7.15;;;;;;;31.95;18.65;94707.56;5093946;28;20468;-51
2021/11/09 00:33:13;;;;;;;9.07;7.00;;;;;;;31.76;19.06;94717.94;5093720;28;20489;-48
2021/11/09 00:35:41;;;;;;;7.50;6.75;;;;;;;31.71;19.19;94721.09;5094366;28;20587;-49
2021/11/09 00:38:10;;;;;;;10.82;8.60;;;;;;;31.85;18.92;94728.97;5093864;28;20052;-49
2021/11/09 00:40:40;;;;;;;10.05;8.48;;;;;;;31.88;18.91;94713.88;5093731;28;20048;-50
2021/11/09 00:43:09;;;;;;;10.30;9.25;;;;;;;31.63;18.90;94708.13;5094496;28;20048;-48
2021/11/09 00:45:37;;;;;;;10.05;8.45;;;;;;;31.61;18.90;94708.53;5093311;28;20039;-48
2021/11/09 00:48:04;;;;;;;9.85;8.73;;;;;;;31.66;19.31;94715.41;5093371;28;20374;-48
2021/11/09 00:50:35;;;;;;;9.55;8.52;;;;;;;31.58;19.30;94710.13;5093794;28;20040;-49
2021/11/09 00:53:03;;;;;;;10.63;9.55;;;;;;;31.75;19.07;94711.03;5094225;28;20327;-49
2021/11/09 00:55:30;;;;;;;10.77;8.82;;;;;;;31.58;19.30;94703.97;5094072;28;20446;-50
2021/11/09 00:57:57;;;;;;;9.38;8.45;;;;;;;31.66;19.24;94699.94;5093947;28;20044;-48
2021/11/09 01:00:28;;;;;;;8.38;7.57;;;;;;;31.69;18.84;94703.75;5093705;28;20382;-48
2021/11/09 01:03:00;;;;;;;9.32;7.85;;;;;;;31.64;18.80;94712.34;5094325;28;20063;-49
2021/11/09 01:05:28;;;;;;;8.93;7.70;;;;;;;31.78;18.88;94723.72;5093035;28;20056;-49
2021/11/09 01:07:58;;;;;;;9.68;8.05;;;;;;;31.99;18.72;94716.34;5093773;28;20063;-49
2021/11/09 01:10:27;;;;;;;8.95;7.20;;;;;;;31.82;18.56;94721.69;5093039;28;20458;-49
2021/11/09 01:12:55;;;;;;;8.35;7.55;;;;;;;31.88;18.87;94736.25;5094240;28;20511;-48
2021/11/09 01:15:23;;;;;;;7.47;6.75;;;;;;;31.68;18.71;94734.66;5093252;28;20067;-49
2021/11/09 01:17:51;;;;;;;7.30;6.60;;;;;;;31.95;18.39;94748.09;5093583;28;20039;-50
2021/11/09 01:20:22;;;;;;;6.90;6.20;;;;;;;31.50;18.69;94751.94;5093495;28;20048;-50
2021/11/09 01:22:52;;;;;;;7.63;6.82;;;;;;;31.39;19.04;94751.34;5094122;28;20059;-49
2021/11/09 01:25:21;;;;;;;8.80;6.93;;;;;;;31.38;19.09;94744.41;5092988;28;20040;-49
2021/11/09 01:27:49;;;;;;;7.03;6.32;;;;;;;31.21;18.79;94756.25;5090451;28;20063;-49
2021/11/09 01:30:17;;;;;;;7.57;6.88;;;;;;;31.08;18.91;94753.34;5093484;28;20055;-49
2021/11/09 01:32:44;;;;;;;7.57;6.72;;;;;;;31.24;18.62;94761.63;5073719;28;20044;-49
2021/11/09 01:35:11;;;;;;;8.30;6.70;;;;;;;31.33;18.70;94765.72;5072858;28;20052;-50
2021/11/09 01:37:39;;;;;;;8.13;7.05;;;;;;;31.00;19.20;94765.41;5074251;28;20060;-49
2021/11/09 01:40:07;;;;;;;7.95;6.40;;;;;;;31.36;18.60;94762.22;5093603;28;20051;-49
2021/11/09 01:42:35;;;;;;;7.85;7.07;;;;;;;30.17;19.78;94759.47;5092697;28;20358;-50
2021/11/09 01:45:04;;;;;;;9.30;7.50;;;;;;;29.68;20.36;94763.44;5088585;28;20359;-50
2021/11/09 01:47:31;;;;;;;9.02;7.93;;;;;;;29.72;20.34;94759.53;5077389;28;20477;-52
2021/11/09 01:49:59;;;;;;;8.25;7.53;;;;;;;29.67;20.69;94761.91;5097280;28;20048;-50
2021/11/09 01:52:27;;;;;;;8.40;7.70;;;;;;;29.62;20.73;94759.63;5097427;28;20044;-49
2021/11/09 01:54:55;;;;;;;8.63;7.68;;;;;;;29.48;20.90;94759.75;5079292;28;20366;-49
2021/11/09 01:57:22;;;;;;;8.57;7.68;;;;;;;29.21;21.01;94757.63;5078399;28;20041;-49
2021/11/09 01:59:49;;;;;;;8.13;7.32;;;;;;;29.32;21.28;94758.28;5096026;28;20075;-50
2021/11/09 02:02:18;;;;;;;8.40;7.50;;;;;;;29.19;21.34;94759.94;5097481;28;20450;-49
2021/11/09 02:04:45;;;;;;;8.27;7.47;;;;;;;29.05;21.33;94760.03;5097152;28;20044;-49
2021/11/09 02:07:12;;;;;;;9.30;8.07;;;;;;;29.37;21.07;94755.19;5097420;28;20048;-50
2021/11/09 02:09:39;;;;;;;10.32;7.78;;;;;;;29.11;21.40;94769.22;5096760;28;20044;-49
2021/11/09 02:12:06;;;;;;;8.88;7.55;;;;;;;29.28;21.04;94776.41;5097280;28;20054;-48
2021/11/09 02:14:34;;;;;;;8.32;7.50;;;;;;;29.21;21.41;94775.69;5095543;28;20446;-50
2021/11/09 02:17:01;;;;;;;8.15;7.22;;;;;;;29.21;21.44;94776.47;5097150;28;20055;-50
2021/11/09 02:19:28;;;;;;;7.65;6.85;;;;;;;29.27;20.93;94772.19;5077948;28;20048;-49
2021/11/09 02:21:55;;;;;;;7.65;6.85;;;;;;;29.08;21.29;94770.00;5096280;28;20056;-49
2021/11/09 02:24:22;;;;;;;7.60;6.78;;;;;;;29.07;21.29;94779.25;5078518;28;20059;-49
2021/11/09 02:26:49;;;;;;;8.52;7.00;;;;;;;29.31;20.71;94781.00;5097110;28;20043;-50
2021/11/09 02:29:16;;;;;;;7.55;6.85;;;;;;;29.15;20.77;94786.13;5096135;28;20059;-49
2021/11/09 02:31:43;;;;;;;7.35;6.65;;;;;;;28.93;21.22;94790.88;5096782;28;20044;-49
2021/11/09 02:34:10;;;;;;;7.78;6.95;;;;;;;28.64;21.60;94787.53;5096610;28;20043;-49
2021/11/09 02:36:37;;;;;;;7.63;6.60;;;;;;;28.93;21.16;94787.41;5096779;28;20036;-49
2021/11/09 02:39:05;;;;;;;7.10;6.38;;;;;;;28.65;21.33;94791.75;5093633;28;20040;-50
2021/11/09 02:41:32;;;;;;;9.38;7.25;;;;;;;28.50;21.74;94801.03;5094871;28;20047;-49
2021/11/09 02:44:00;;;;;;;7.53;6.65;;;;;;;28.51;21.76;94797.19;5095963;28;20055;-50
2021/11/09 02:46:36;;;;;;;8.52;7.25;;;;;;;28.75;21.23;94796.31;5096630;28;20458;-50
2021/11/09 02:49:14;;;;;;;7.80;7.00;;;;;;;29.00;21.38;94798.13;5095638;28;20056;-49
2021/11/09 02:51:52;;;;;;;8.85;7.32;;;;;;;28.70;21.33;94804.78;5096011;28;20055;-52
2021/11/09 02:54:24;;;;;;;9.05;6.85;;;;;;;28.94;21.28;94791.63;5094618;28;20450;-50
2021/11/09 02:57:07;;;;;;;8.07;7.28;;;;;;;28.92;21.41;94783.19;5096141;28;20048;-50
2021/11/09 03:05:15;;;;;;;8.10;7.30;;;;;;;28.77;21.53;94812.81;5096228;28;20051;-53
2021/11/09 03:10:44;;;;;;;8.50;7.60;;;;;;;28.68;21.55;94809.03;5039917;28;20055;-50
2021/11/09 03:13:11;;;;;;;7.88;7.07;;;;;;;28.56;21.78;94812.91;5094063;28;20044;-50
2021/11/09 03:15:38;;;;;;;7.88;6.50;;;;;;;28.63;21.67;94817.50;5094534;28;20501;-49
2021/11/09 03:18:12;;;;;;;7.20;6.20;;;;;;;28.55;21.42;94819.44;5095994;28;20047;-52
2021/11/09 03:20:48;;;;;;;7.75;6.50;;;;;;;28.58;21.49;94817.88;5095518;28;20056;-52
2021/11/09 03:40:04;;;;;;;8.00;7.20;;;;;;;28.56;21.24;94820.97;5077296;28;20367;-50
2021/11/09 03:45:25;;;;;;;11.60;7.78;;;;;;;28.53;21.22;94813.69;5095061;28;20070;-48
2021/11/09 03:47:55;;;;;;;9.80;7.57;;;;;;;28.47;20.92;94824.09;5095439;28;20056;-51
2021/11/09 03:50:26;;;;;;;10.23;7.10;;;;;;;28.32;21.37;94816.44;5094251;28;20047;-49
2021/11/09 03:53:18;;;;;;;9.00;6.80;;;;;;;28.52;20.84;94825.59;5095135;28;20448;-49
2021/11/09 03:58:31;;;;;;;8.30;7.32;;;;;;;28.44;21.15;94818.72;5095124;28;20051;-48
2021/11/09 04:01:02;;;;;;;9.20;7.53;;;;;;;28.50;21.32;94822.53;5078959;28;20055;-49
2021/11/09 04:06:12;;;;;;;9.30;7.82;;;;;;;27.73;21.89;94816.13;5095010;28;20071;-48
2021/11/09 04:09:06;;;;;;;8.75;7.15;;;;;;;27.82;22.11;94821.88;5095294;28;20044;-49
2021/11/09 04:14:14;;;;;;;7.53;6.82;;;;;;;28.12;21.66;94824.94;5093937;28;20054;-49
2021/11/09 04:21:52;;;;;;;8.20;7.40;;;;;;;27.84;21.91;94819.56;5093998;28;20060;-51
2021/11/09 05:01:53;;;;;;;7.40;6.50;;;;;;;27.51;21.77;94883.22;5114474;28;20043;-49
2021/11/09 05:12:44;;;;;;;8.20;7.40;;;;;;;27.62;21.47;94867.94;5058167;28;20044;-49
2021/11/09 05:15:11;;;;;;;8.95;7.95;;;;;;;27.33;22.11;94890.50;5093564;28;20059;-49
2021/11/09 05:17:39;;;;;;;8.48;7.63;;;;;;;27.43;21.82;94894.34;5093729;28;20451;-49
2021/11/09 05:20:06;;;;;;;10.20;8.50;;;;;;;27.42;22.13;94884.75;5098101;28;20481;-50
2021/11/09 05:22:33;;;;;;;8.93;8.02;;;;;;;27.29;22.07;94892.38;5097116;28;20074;-50
2021/11/09 05:25:00;;;;;;;9.60;8.23;;;;;;;27.47;22.01;94893.19;5098378;28;20350;-50
2021/11/09 05:27:28;;;;;;;10.43;9.43;;;;;;;27.42;22.35;94907.00;5098155;28;20040;-50
2021/11/09 05:29:56;;;;;;;12.45;10.88;;;;;;;27.47;22.13;94919.28;5097690;28;20044;-50
2021/11/09 05:32:24;;;;;;;13.07;10.27;;;;;;;27.70;22.10;94927.00;5095748;28;20409;-51
2021/11/09 05:34:51;;;;;;;11.50;10.18;;;;;;;27.79;22.45;94912.06;5097655;28;20048;-48
2021/11/09 05:37:22;;;;;;;12.05;10.55;;;;;;;29.21;21.19;94913.75;5083583;28;20430;-47
2021/11/09 05:39:53;;;;;;;10.20;9.13;;;;;;;31.20;19.20;94920.19;5076328;28;20052;-49
2021/11/09 05:42:21;;;;;;;10.90;7.72;;;;;;;32.26;17.87;94930.69;5077725;28;20055;-51
2021/11/09 05:44:49;;;;;;;9.05;6.78;;;;;;;32.99;17.17;94931.72;5088596;28;20044;-47
2021/11/09 05:47:16;;;;;;;8.05;6.70;;;;;;;33.71;16.75;94927.13;5077604;28;20033;-48
2021/11/09 05:49:43;;;;;;;6.70;6.03;;;;;;;34.87;15.58;94930.16;5077178;28;20048;-49
2021/11/09 05:52:11;;;;;;;8.40;5.40;;;;;;;33.76;16.44;94938.66;5081851;28;20358;-48
2021/11/09 05:54:38;;;;;;;6.30;5.68;;;;;;;32.72;17.38;94950.75;5113798;28;20105;-48
2021/11/09 05:57:06;;;;;;;6.80;6.10;;;;;;;32.39;17.72;94947.84;5092176;28;20048;-64
2021/11/09 05:59:33;;;;;;;9.35;6.28;;;;;;;32.24;18.26;94946.53;5081927;28;20052;-60
2021/11/09 06:02:00;;;;;;;6.95;6.18;;;;;;;32.06;18.40;94954.94;5085180;28;20040;-49
2021/11/09 06:04:27;;;;;;;8.02;6.32;;;;;;;31.52;18.59;94965.72;5095518;28;20039;-49
2021/11/09 06:06:54;;;;;;;8.65;6.85;;;;;;;31.52;18.16;94965.72;5090256;28;20048;-48
2021/11/09 06:09:22;;;;;;;8.00;6.47;;;;;;;31.36;18.45;94956.66;5076869;28;20343;-49
2021/11/09 06:11:49;;;;;;;6.55;5.90;;;;;;;30.96;18.61;94977.91;5076829;28;20045;-48
2021/11/09 06:14:16;;;;;;;6.28;5.68;;;;;;;31.02;18.42;94970.94;5085559;28;20055;-48
2021/11/09 06:16:43;;;;;;;8.23;6.00;;;;;;;30.79;18.70;94989.69;5077128;28;20363;-61
2021/11/09 06:19:10;;;;;;;7.13;6.43;;;;;;;31.09;18.43;94970.84;5077242;28;20055;-48
2021/11/09 06:21:37;;;;;;;6.90;6.30;;;;;;;30.95;18.54;94960.19;5076846;28;20064;-51
2021/11/09 06:24:04;;;;;;;9.43;6.30;;;;;;;30.73;18.67;94959.69;5102668;28;20035;-64
2021/11/09 06:26:32;;;;;;;7.40;6.70;;;;;;;30.88;18.75;94971.84;5116079;28;20043;-58
2021/11/09 06:28:59;;;;;;;7.35;6.65;;;;;;;30.98;18.49;94976.38;5116456;28;20082;-54
2021/11/09 06:31:30;;;;;;;7.60;6.90;;;;;;;30.72;18.98;94979.75;5116582;28;20047;-49
2021/11/09 06:33:58;;;;;;;7.65;6.90;;;;;;;30.72;18.94;94968.19;5105537;28;20059;-50
2021/11/09 06:36:26;;;;;;;9.20;8.32;;;;;;;30.76;19.16;94990.50;5096888;28;20047;-51
2021/11/09 06:38:53;;;;;;;7.35;6.65;;;;;;;30.69;19.38;95002.09;5096742;28;20047;-50
2021/11/09 06:41:21;;;;;;;7.95;7.15;;;;;;;30.93;18.80;94978.72;5096820;28;20040;-50
2021/11/09 06:43:48;;;;;;;7.28;6.57;;;;;;;30.86;19.38;94974.19;5094259;28;20048;-53
2021/11/09 06:46:16;;;;;;;7.47;6.78;;;;;;;30.62;19.42;94986.75;5095810;28;20051;-48
2021/11/09 06:48:45;;;;;;;7.65;6.80;;;;;;;31.07;18.90;94977.81;5096572;28;20048;-49
2021/11/09 06:51:13;;;;;;;7.50;6.80;;;;;;;30.91;19.26;94986.47;5096576;28;20055;-49
2021/11/09 06:53:40;;;;;;;8.20;7.40;;;;;;;30.82;19.23;94988.88;5096031;28;20382;-48
2021/11/09 06:56:07;;;;;;;7.47;6.78;;;;;;;30.84;18.97;94992.72;5096597;28;20055;-64
2021/11/09 06:58:35;;;;;;;7.38;6.25;;;;;;;30.82;19.03;94991.59;5096355;28;20054;-56
2021/11/09 07:01:06;;;;;;;7.22;6.45;;;;;;;30.46;19.89;94989.19;5096277;28;20062;-48
2021/11/09 07:03:34;;;;;;;7.57;6.50;;;;;;;30.83;19.15;94990.41;5095644;28;20051;-49
2021/11/09 07:06:04;;;;;;;6.45;5.85;;;;;;;30.64;19.31;94984.41;5095545;28;20052;-64
2021/11/09 07:08:31;;;;;;;6.80;6.18;;;;;;;30.55;19.54;94986.78;5096250;28;20043;-66
2021/11/09 07:10:59;;;;;;;6.22;5.72;;;;;;;30.60;19.26;95001.78;5096397;28;20048;-66
2021/11/09 07:13:27;;;;;;;7.53;6.53;;;;;;;30.47;19.35;95006.91;5095499;28;20047;-64
2021/11/09 07:15:54;;;;;;;7.07;6.00;;;;;;;30.81;19.14;95014.34;5095787;28;20059;-49
2021/11/09 07:18:21;;;;;;;7.13;6.43;;;;;;;30.57;19.45;95014.13;5095436;28;20044;-48
2021/11/09 07:20:50;;;;;;;6.63;6.03;;;;;;;30.55;19.45;95013.78;5095905;28;20052;-49
2021/11/09 07:23:17;;;;;;;6.65;5.90;;;;;;;30.60;19.13;95026.84;5096008;28;20051;-66
2021/11/09 07:25:45;;;;;;;5.45;4.95;;;;;;;30.64;19.20;95032.97;5104618;28;20048;-57
2021/11/09 07:28:12;;;;;;;4.90;4.40;;;;;;;30.52;19.30;95056.97;5115233;28;20043;-49
2021/11/09 07:30:54;;;;;;;5.55;5.05;;;;;;;30.48;19.04;95053.53;5090409;28;20048;-66
2021/11/09 07:33:21;;;;;;;4.95;4.45;;;;;;;30.69;18.88;95059.53;5076338;28;20390;-65
2021/11/09 07:35:48;;;;;;;5.65;5.15;;;;;;;30.47;19.16;95060.84;5095298;28;20059;-49
2021/11/09 07:38:17;;;;;;;4.93;4.50;;;;;;;30.53;18.95;95055.81;5094725;28;20052;-58
2021/11/09 07:40:48;;;;;;;5.13;4.63;;;;;;;29.99;19.40;95069.59;5095323;28;20465;-50
2021/11/09 07:43:17;;;;;;;6.50;5.13;;;;;;;30.13;19.45;95074.16;5095790;28;20047;-48
2021/11/09 07:45:44;;;;;;;5.60;5.00;;;;;;;30.55;19.07;95083.91;5105004;28;20055;-49
2021/11/09 07:48:12;;;;;;;5.13;4.53;;;;;;;30.37;19.02;95083.25;5084776;28;20055;-50
2021/11/09 07:50:39;;;;;;;5.43;4.85;;;;;;;30.21;19.11;95085.69;5092511;28;20044;-48
2021/11/09 07:53:12;;;;;;;5.65;5.05;;;;;;;30.08;19.19;95078.03;5095486;28;20048;-49
2021/11/09 07:55:44;;;;;;;5.97;5.43;;;;;;;30.78;18.43;95085.31;5094621;28;20083;-53
2021/11/09 07:58:16;;;;;;;6.38;5.25;;;;;;;30.41;18.98;95102.88;5099877;28;20077;-58
2021/11/09 08:00:48;;;;;;;5.80;5.18;;;;;;;30.44;18.86;95110.19;5115737;28;20054;-49
2021/11/09 08:03:19;;;;;;;5.50;5.00;;;;;;;30.53;18.84;95115.91;5115697;28;20039;-48
2021/11/09 08:08:37;;;;;;;7.07;6.35;;;;;;;30.52;18.84;95119.00;5115235;28;20040;-50
2021/11/09 08:11:05;;;;;;;6.22;5.63;;;;;;;30.43;18.75;95127.53;5115804;28;20043;-63
2021/11/09 08:13:32;;;;;;;6.47;5.70;;;;;;;30.40;19.00;95136.41;5108663;28;20757;-53
2021/11/09 08:15:59;;;;;;;6.40;5.80;;;;;;;30.46;19.00;95139.47;5074749;28;20040;-58
2021/11/09 08:18:26;;;;;;;6.38;5.78;;;;;;;30.24;18.85;95144.22;5091436;28;20134;-62
2021/11/09 08:20:53;;;;;;;7.03;6.28;;;;;;;30.37;18.75;95142.59;5115168;28;20047;-65
2021/11/09 08:23:20;;;;;;;6.53;5.93;;;;;;;30.35;19.19;95142.22;5097233;28;20047;-49
2021/11/09 08:25:47;;;;;;;7.20;6.38;;;;;;;30.56;18.62;95150.19;5115229;28;20054;-66
2021/11/09 08:28:14;;;;;;;6.80;6.05;;;;;;;30.41;18.96;95159.50;5113484;28;20046;-48
2021/11/09 08:30:41;;;;;;;7.55;5.38;;;;;;;30.62;18.48;95164.03;5113233;28;20050;-59
2021/11/09 08:33:08;;;;;;;5.43;4.93;;;;;;;30.43;18.74;95173.38;5114894;28;20047;-66
2021/11/09 08:35:36;;;;;;;5.38;4.88;;;;;;;30.48;18.47;95175.69;5114958;28;20058;-61
2021/11/09 08:38:06;;;;;;;5.65;5.15;;;;;;;30.27;18.89;95181.94;5113647;28;20062;-53
2021/11/09 08:40:35;;;;;;;6.68;5.50;;;;;;;30.46;18.71;95169.16;5114809;28;20690;-56
2021/11/09 08:43:03;;;;;;;6.72;5.90;;;;;;;30.31;18.71;95169.22;5115005;28;20047;-56
2021/11/09 08:45:50;;;;;;;5.45;4.90;;;;;;;30.26;18.61;95177.72;5074937;28;20055;-48
2021/11/09 08:48:18;;;;;;;5.60;5.10;;;;;;;30.71;18.39;95174.38;5082249;28;20500;-50
2021/11/09 08:50:48;;;;;;;5.70;4.90;;;;;;;30.59;18.67;95176.38;5094323;28;20389;-48
2021/11/09 08:53:30;;;;;;;6.13;5.13;;;;;;;30.44;18.46;95179.53;5093625;28;20059;-64
2021/11/09 09:00:58;;;;;;;6.15;5.55;;;;;;;30.66;18.31;95172.88;5099798;28;20058;-64
2021/11/09 09:04:11;;;;;;;5.68;5.10;;;;;;;30.74;18.11;95181.72;5114727;28;20048;-65
2021/11/09 09:04:18;;;;;;;5.65;5.15;;;;;;;30.66;17.92;95175.59;5113197;28;20055;-66
2021/11/09 09:06:53;;;;;;;5.45;4.85;;;;;;;30.62;18.04;95170.22;5114623;28;20039;-64
2021/11/09 09:09:21;;;;;;;6.72;5.45;;;;;;;30.60;17.67;95171.75;5097822;28;20058;-63
2021/11/09 09:11:49;;;;;;;5.80;5.25;;;;;;;30.69;17.80;95175.56;5094387;28;20048;-65
2021/11/09 09:14:18;;;;;;;6.70;5.35;;;;;;;30.42;18.03;95188.03;5093663;28;20043;-48
2021/11/09 09:16:47;;;;;;;5.60;5.00;;;;;;;30.38;17.97;95181.88;5094075;28;20446;-59
2021/11/09 09:19:53;;;;;;;6.47;4.65;;;;;;;30.52;17.97;95179.13;5110856;28;20066;-65
2021/11/09 09:22:35;;;;;;;5.07;4.53;;;;;;;30.49;17.93;95188.00;5114549;28;20056;-49
2021/11/09 09:25:32;;;;;;;5.20;4.38;;;;;;;30.54;17.73;95195.69;5114578;28;20040;-62
2021/11/09 09:28:27;;;;;;;5.97;4.47;;;;;;;30.14;18.14;95204.34;5113351;28;20059;-55
2021/11/09 09:55:45;;;;;;;5.85;4.75;;;;;;;30.38;17.74;95252.00;5073612;28;20048;-56
2021/11/09 09:58:13;;;;;;;4.75;4.18;;;;;;;30.18;17.93;95259.00;5078632;28;20051;-60
2021/11/09 10:00:42;;;;;;;5.53;4.43;;;;;;;29.14;19.10;95258.31;5109528;28;20365;-62
2021/11/09 10:03:10;;;;;;;5.18;4.68;;;;;;;24.72;24.30;95268.44;5073746;28;20045;-57
2021/11/09 10:05:41;;;;;;;5.40;4.90;;;;;;;26.13;22.72;95272.63;5076662;28;20044;-65
2021/11/09 10:08:15;;;;;;;5.60;5.00;;;;;;;27.75;20.82;95286.56;5085897;28;20044;-63
2021/11/09 10:10:44;;;;;;;5.43;4.72;;;;;;;28.38;20.06;95277.34;5078585;28;20045;-48
2021/11/09 10:13:20;;;;;;;5.57;4.93;;;;;;;29.02;19.04;95272.94;5077379;28;20045;-50
2021/11/09 10:15:49;;;;;;;5.90;4.90;;;;;;;28.88;19.38;95280.19;5097376;28;20047;-56
2021/11/09 10:18:19;;;;;;;5.85;5.35;;;;;;;28.84;19.41;95286.31;5087411;28;20363;-56
2021/11/09 10:20:56;;;;;;;5.93;5.18;;;;;;;28.89;19.35;95295.19;5114974;28;20039;-64
2021/11/09 10:23:25;;;;;;;6.68;5.93;;;;;;;28.80;19.50;95298.97;5117575;28;20078;-55
2021/11/09 10:25:59;;;;;;;5.68;5.10;;;;;;;29.03;18.98;95295.22;5117587;28;20323;-64
2021/11/09 10:28:26;;;;;;;5.85;5.35;;;;;;;28.83;19.56;95297.44;5111332;28;20039;-48
2021/11/09 10:30:59;;;;;;;5.88;5.38;;;;;;;28.69;19.70;95292.03;5096805;28;20078;-47
2021/11/09 10:33:30;;;;;;;6.32;5.68;;;;;;;28.73;19.57;95285.53;5096963;28;20054;-50
2021/11/09 10:35:58;;;;;;;6.53;5.93;;;;;;;28.56;20.13;95297.75;5088936;28;20040;-48
2021/11/09 10:38:30;;;;;;;6.07;5.38;;;;;;;28.52;20.88;95293.50;5065788;28;20059;-52
2021/11/09 10:40:59;;;;;;;6.20;5.25;;;;;;;28.47;21.30;95291.97;5114559;28;20043;-45
2021/11/09 10:43:28;;;;;;;6.03;5.40;;;;;;;29.59;20.62;95299.13;5082086;28;20047;-45
2021/11/09 10:45:56;;;;;;;33.60;26.65;;;;;;;30.27;19.85;95294.44;5084521;28;20059;-49
2021/11/09 10:48:24;;;;;;;60.30;41.83;;;;;;;30.04;20.21;95303.75;5084561;28;20052;-50
2021/11/09 10:50:58;;;;;;;31.88;24.05;;;;;;;30.48;19.95;95321.34;5093279;28;20063;-48
2021/11/09 10:53:34;;;;;;;22.50;18.35;;;;;;;30.68;19.78;95322.44;5086617;28;20053;-52
2021/11/09 10:59:16;;;;;;;13.10;11.02;;;;;;;30.75;19.82;95329.75;5089512;28;20052;-49
2021/11/09 11:04:35;;;;;;;8.18;7.38;;;;;;;30.11;20.24;95339.91;5113768;28;20393;-45
2021/11/09 11:07:06;;;;;;;;;;;;;;;30.48;19.99;95339.47;5076794;28;20052;-46
2021/11/09 11:09:36;;;;;;;6.93;6.17;;;;;;;30.52;20.19;95343.69;5089738;28;19916;-45
2021/11/09 11:12:26;;;;;;;6.43;5.82;;;;;;;30.29;20.22;95346.06;5095058;28;20356;-46
2021/11/09 11:14:54;;;;;;;6.40;5.80;;;;;;;29.96;20.78;95358.78;5095538;28;20051;-45
2021/11/09 11:17:21;;;;;;;6.20;5.43;;;;;;;29.69;20.87;95363.81;5080951;28;20055;-51
2021/11/09 11:19:52;;;;;;;7.50;5.70;;;;;;;30.55;20.33;95369.09;5098412;28;20044;-45
2021/11/09 11:22:21;;;;;;;5.82;4.90;;;;;;;30.69;20.02;95359.03;5085805;28;20083;-53
2021/11/09 11:24:50;;;;;;;7.13;5.28;;;;;;;30.75;20.36;95356.72;5075155;28;20045;-54
2021/11/09 11:27:18;;;;;;;6.82;5.60;;;;;;;30.76;20.07;95358.25;5076083;28;20047;-53
2021/11/09 11:29:46;;;;;;;5.55;5.00;;;;;;;30.87;20.00;95363.59;5100181;28;20040;-63
2021/11/09 11:32:16;;;;;;;6.25;5.05;;;;;;;30.75;20.12;95372.16;5116420;28;20054;-48
2021/11/09 11:34:43;;;;;;;5.00;4.50;;;;;;;30.17;20.63;95365.31;5105130;28;20051;-47
2021/11/09 11:37:12;;;;;;;5.15;4.40;;;;;;;29.68;20.46;95372.28;5075697;28;20056;-46
2021/11/09 11:39:40;;;;;;;4.35;3.60;;;;;;;29.58;20.58;95383.81;5088452;28;20044;-46
2021/11/09 11:42:14;;;;;;;3.92;3.50;;;;;;;29.16;20.74;95386.03;5089185;28;20044;-54
2021/11/09 11:44:42;;;;;;;3.78;3.38;;;;;;;29.33;20.57;95379.13;5087823;28;20051;-50
2021/11/09 11:47:23;;;;;;;4.20;3.80;;;;;;;29.00;20.52;95382.13;5095671;28;20059;-48
2021/11/09 11:49:58;;;;;;;5.55;3.30;;;;;;;28.72;20.92;95391.59;5105615;28;20044;-58
2021/11/09 11:52:30;;;;;;;3.53;3.22;;;;;;;28.84;20.97;95407.38;5085735;28;20048;-48
2021/11/09 11:55:09;;;;;;;3.63;3.33;;;;;;;29.29;20.46;95418.72;5075093;28;20044;-51
2021/11/09 11:57:50;;;;;;;4.63;3.10;;;;;;;29.65;20.41;95426.91;5085793;28;20040;-47
2021/11/09 12:00:23;;;;;;;2.75;2.20;;;;;;;29.32;20.37;95431.44;5094626;28;20051;-48
2021/11/09 12:02:50;;;;;;;4.63;2.15;;;;;;;28.81;21.09;95442.34;5095310;28;20355;-48
2021/11/09 12:05:40;;;;;;;6.72;2.70;;;;;;;30.35;20.20;95447.75;5095278;28;20051;-49
2021/11/09 12:08:10;;;;;;;3.47;2.15;;;;;;;30.17;20.31;95463.16;5093314;28;20047;-49
2021/11/09 12:10:38;;;;;;;4.88;2.28;;;;;;;30.41;19.85;95472.41;5075280;28;20040;-52
2021/11/09 12:13:06;;;;;;;2.88;2.55;;;;;;;30.46;19.71;95463.94;5075248;28;20043;-48
2021/11/09 12:15:54;;;;;;;4.30;2.35;;;;;;;29.15;21.12;95469.84;5081953;28;20059;-49
2021/11/09 12:18:42;;;;;;;4.70;2.75;;;;;;;30.04;20.06;95484.34;5081220;28;20044;-46
2021/11/09 12:21:18;;;;;;;2.70;2.40;;;;;;;30.49;19.48;95470.47;5074070;28;20072;-44
2021/11/09 12:24:08;;;;;;;3.20;2.67;;;;;;;30.92;18.30;95487.38;5074139;28;20056;-54
2021/11/09 12:26:57;;;;;;;3.55;2.42;;;;;;;29.41;19.80;95487.66;5074269;28;20048;-48
2021/11/09 12:29:47;;;;;;;2.35;2.00;;;;;;;29.75;19.12;95485.44;5091349;28;20054;-47
2021/11/09 12:32:26;;;;;;;3.28;2.08;;;;;;;29.84;19.38;95493.16;5105017;28;20043;-49
2021/11/09 12:35:17;;;;;;;2.25;1.80;;;;;;;29.67;19.63;95479.28;5115211;28;20055;-47
2021/11/09 12:38:04;;;;;;;2.50;1.92;;;;;;;29.90;19.55;95497.78;5096823;28;20051;-48
2021/11/09 12:40:31;;;;;;;1.80;1.60;;;;;;;30.13;19.26;95496.69;5095509;28;20366;-47
2021/11/09 12:43:20;;;;;;;6.85;1.98;;;;;;;29.79;19.45;95507.78;5084292;28;20049;-47
2021/11/09 12:46:08;;;;;;;3.78;1.58;;;;;;;30.18;19.26;95512.47;5073557;28;20051;-48
2021/11/09 12:48:38;;;;;;;2.60;2.17;;;;;;;30.17;19.25;95517.09;5081994;28;20040;-48
2021/11/09 12:51:11;;;;;;;2.15;1.73;;;;;;;30.27;19.36;95520.97;5114531;28;20039;-48
2021/11/09 12:53:39;;;;;;;4.80;1.98;;;;;;;30.39;19.27;95502.44;5101639;28;20363;-49
2021/11/09 12:56:14;;;;;;;3.65;1.92;;;;;;;30.35;18.86;95514.41;5074287;28;20048;-47
2021/11/09 12:58:51;;;;;;;2.20;1.90;;;;;;;29.43;19.75;95512.28;5083184;28;20055;-48
2021/11/09 13:04:16;;;;;;;3.25;1.95;;;;;;;29.44;19.24;95511.91;5073504;28;20044;-47
2021/11/09 13:09:24;;;;;;;1.83;1.63;;;;;;;29.65;19.15;95523.91;5087317;28;20040;-47
2021/11/09 13:11:57;;;;;;;1.73;1.50;;;;;;;29.76;18.95;95519.31;5094401;28;20044;-49
2021/11/09 13:14:32;;;;;;;2.85;1.40;;;;;;;29.73;19.22;95534.34;5085133;28;20044;-48
2021/11/09 13:16:59;;;;;;;2.65;1.70;;;;;;;29.28;19.71;95527.59;5074097;28;20048;-49
2021/11/09 13:19:37;;;;;;;1.80;1.52;;;;;;;29.63;18.97;95520.81;5094869;28;20074;-47
2021/11/09 13:22:10;;;;;;;1.50;1.38;;;;;;;29.46;19.28;95533.84;5114794;28;20059;-48
2021/11/09 13:24:40;;;;;;;1.70;1.50;;;;;;;29.29;19.58;95531.81;5114457;28;20051;-49
2021/11/09 13:27:10;;;;;;;2.53;2.33;;;;;;;29.41;19.43;95542.28;5104739;28;20059;-48
2021/11/09 15:01:38;;;;;;;3.10;2.70;;;;;;;29.17;19.21;95670.25;5062295;28;20060;-56
2021/11/09 15:04:18;;;;;;;2.95;2.65;;;;;;;29.44;19.06;95664.66;5066698;28;20061;-51
2021/11/09 15:06:54;;;;;;;3.92;3.40;;;;;;;29.24;19.13;95676.81;5064719;28;20048;-51
2021/11/09 15:31:36;;;;;;;3.10;2.50;;;;;;;30.71;18.79;95717.59;5061905;28;20056;-52
2021/11/09 15:39:38;;;;;;;3.53;2.80;;;;;;;30.75;18.47;95739.19;5036097;28;20060;-50
2021/11/09 15:42:06;;;;;;;16.33;14.82;;;;;;;30.75;19.03;95742.66;5055411;28;20355;-51
2021/11/09 15:44:33;;;;;;;7.55;6.75;;;;;;;30.63;18.88;95749.16;5069784;28;20044;-52
2021/11/09 15:47:01;;;;;;;5.55;4.40;;;;;;;30.73;19.04;95746.91;5072612;28;20052;-52
2021/11/09 15:49:28;;;;;;;3.78;3.30;;;;;;;31.16;18.54;95748.50;5058543;28;20045;-51
2021/11/09 15:51:57;;;;;;;3.13;2.78;;;;;;;30.94;18.55;95757.72;5067209;28;20370;-50
2021/11/09 15:54:24;;;;;;;3.17;2.80;;;;;;;31.01;18.35;95760.44;5064888;28;20049;-52
2021/11/09 15:56:52;;;;;;;3.00;2.70;;;;;;;30.83;18.83;95767.72;5065219;28;20052;-51
2021/11/09 15:59:19;;;;;;;2.90;2.70;;;;;;;30.77;18.70;95766.56;5065102;28;20379;-51